Time;durP1;ratioP1;P1;durP2;ratioP2;P2;SDS_P1;SDS_P2;PMS_P1;PMS_P2;Temp;Humidity;BMP_temperature;BMP_pressure;BME280_temperature;BME280_humidity;BME280_pressure;Samples;Min_cycle;Max_cycle;Signal;HPM_P1;HPM_P2
2024/04/20 00:00:17;;;;;;;4.90;2.80;;;;;;;12.33;75.87;99978.16;5490330;25;94741;-80
2024/04/20 00:02:45;;;;;;;6.18;3.17;;;;;;;12.29;75.97;99979.22;5488445;25;96948;-81
2024/04/20 00:05:13;;;;;;;6.85;2.55;;;;;;;12.33;75.83;99989.59;5490533;25;97987;-80
2024/04/20 00:07:44;;;;;;;6.22;2.72;;;;;;;12.23;76.56;99985.72;5473305;25;95235;-78
2024/04/20 00:10:12;;;;;;;7.95;2.90;;;;;;;12.07;76.83;99989.28;5496566;25;94825;-79
2024/04/20 00:12:41;;;;;;;6.30;2.40;;;;;;;12.19;77.10;99986.84;5483464;25;94875;-80
2024/04/20 00:15:09;;;;;;;5.65;2.40;;;;;;;11.97;76.81;99996.84;5498809;25;96855;-80
2024/04/20 00:17:39;;;;;;;4.50;2.42;;;;;;;12.02;76.22;100005.41;5485626;25;99289;-81
2024/04/20 00:20:08;;;;;;;10.40;2.60;;;;;;;11.89;77.60;99996.41;5469755;25;94730;-79
2024/04/20 00:22:39;;;;;;;8.38;2.70;;;;;;;11.93;76.95;100009.41;5487002;25;94718;-79
2024/04/20 00:25:08;;;;;;;11.00;2.28;;;;;;;11.92;77.06;100014.78;5486216;25;97307;-80
2024/04/20 00:27:36;;;;;;;6.70;2.50;;;;;;;11.80;76.99;100016.28;5489764;25;95719;-79
2024/04/20 00:30:05;;;;;;;9.93;2.83;;;;;;;11.85;76.74;100019.53;5483096;25;94864;-79
2024/04/20 00:32:33;;;;;;;8.23;2.30;;;;;;;11.65;77.15;100026.75;5478194;25;95755;-80
2024/04/20 00:35:01;;;;;;;5.97;1.95;;;;;;;11.77;76.59;100028.81;5474934;25;95871;-77
2024/04/20 00:37:29;;;;;;;8.30;2.33;;;;;;;11.76;77.08;100027.94;5472500;25;97301;-76
2024/04/20 00:40:00;;;;;;;4.60;1.67;;;;;;;11.77;76.69;100037.59;5479476;25;94919;-77
2024/04/20 00:42:28;;;;;;;7.30;2.42;;;;;;;11.68;77.17;100040.72;5477272;25;94958;-78
2024/04/20 00:44:56;;;;;;;7.95;1.55;;;;;;;11.84;77.04;100038.13;5478101;25;99827;-79
2024/04/20 00:47:24;;;;;;;9.40;1.63;;;;;;;11.93;75.89;100042.97;5472872;25;97971;-78
2024/04/20 00:49:53;;;;;;;7.70;2.30;;;;;;;11.89;76.05;100041.41;5481137;25;95167;-77
2024/04/20 00:52:21;;;;;;;5.90;2.20;;;;;;;11.85;76.77;100053.09;5467298;25;95289;-77
2024/04/20 00:54:49;;;;;;;5.10;1.90;;;;;;;11.77;76.59;100057.91;5481922;25;95670;-77
2024/04/20 00:57:20;;;;;;;6.60;2.20;;;;;;;11.94;76.53;100053.50;5481535;25;96289;-77
2024/04/20 00:59:49;;;;;;;11.00;2.92;;;;;;;11.91;77.10;100066.00;5485722;25;95136;-77
2024/04/20 01:02:18;;;;;;;6.60;2.38;;;;;;;11.92;76.70;100063.28;5483691;25;95754;-77
2024/04/20 01:04:43;;;;;;;7.10;2.30;;;;;;;11.96;76.92;100069.28;5479880;25;95669;-77
2024/04/20 01:07:11;;;;;;;;;;;;;;;11.91;77.83;100082.75;5497231;25;96920;-77
2024/04/20 01:09:40;;;;;;;5.75;2.28;;;;;;;12.04;77.62;100080.31;5493829;25;94740;-77
2024/04/20 01:12:08;;;;;;;3.08;1.92;;;;;;;11.92;76.45;100087.13;5494461;25;95036;-78
2024/04/20 01:14:40;;;;;;;4.82;1.92;;;;;;;11.94;76.68;100092.34;5482101;25;95691;-79
2024/04/20 01:17:09;;;;;;;5.80;2.38;;;;;;;11.68;77.43;100092.78;5486246;25;100015;-77
2024/04/20 01:19:37;;;;;;;4.65;1.95;;;;;;;11.71;76.89;100089.97;5465322;25;94790;-78
2024/04/20 01:22:06;;;;;;;2.63;1.92;;;;;;;11.72;77.29;100097.81;5468166;25;95558;-78
2024/04/20 01:24:35;;;;;;;3.42;1.67;;;;;;;11.75;77.84;100099.50;5473534;25;99813;-77
2024/04/20 01:27:07;;;;;;;3.35;1.92;;;;;;;11.97;76.93;100103.63;5471652;25;98737;-76
2024/04/20 01:29:35;;;;;;;6.80;2.20;;;;;;;11.96;76.78;100103.69;5467959;25;95332;-77
2024/04/20 01:32:03;;;;;;;2.40;1.65;;;;;;;11.82;76.69;100106.19;5473520;25;94955;-76
2024/04/20 01:34:33;;;;;;;3.65;2.47;;;;;;;11.73;76.89;100109.28;5471395;25;100184;-77
2024/04/20 01:37:01;;;;;;;5.32;2.30;;;;;;;11.74;77.85;100111.03;5474719;25;97456;-80
2024/04/20 01:39:29;;;;;;;3.20;2.42;;;;;;;11.92;76.86;100121.53;5474237;25;94740;-81
2024/04/20 01:41:57;;;;;;;2.85;2.40;;;;;;;11.84;76.73;100130.78;5478083;25;95033;-80
2024/04/20 01:44:28;;;;;;;3.90;2.60;;;;;;;11.57;77.69;100123.25;5474982;25;95973;-81
2024/04/20 01:46:56;;;;;;;5.25;2.85;;;;;;;11.69;77.68;100127.09;5477337;25;97153;-79
2024/04/20 01:49:25;;;;;;;4.05;2.90;;;;;;;11.57;77.95;100140.91;5469251;25;94834;-78
2024/04/20 01:51:56;;;;;;;4.15;2.50;;;;;;;11.59;77.53;100141.72;5474289;25;94791;-79
2024/04/20 01:54:24;;;;;;;4.53;2.72;;;;;;;11.46;78.04;100145.88;5478418;25;96787;-79
2024/04/20 01:56:53;;;;;;;6.35;2.10;;;;;;;11.32;78.36;100149.19;5476917;25;95634;-79
2024/04/20 01:59:21;;;;;;;3.25;2.20;;;;;;;11.30;79.32;100156.34;5474701;25;94890;-79
2024/04/20 02:01:55;;;;;;;2.70;1.88;;;;;;;11.56;78.04;100157.72;5478406;25;94840;-77
2024/04/20 02:04:24;;;;;;;3.22;2.05;;;;;;;11.37;78.26;100167.47;5474459;25;96061;-78
2024/04/20 02:06:52;;;;;;;2.35;1.75;;;;;;;11.23;77.77;100168.13;5474013;25;96301;-78
2024/04/20 02:09:21;;;;;;;2.17;1.60;;;;;;;11.07;78.31;100177.72;5492755;25;95176;-79
2024/04/20 02:11:49;;;;;;;3.15;1.80;;;;;;;10.97;79.51;100176.44;5479516;25;95229;-78
2024/04/20 02:14:17;;;;;;;3.65;2.30;;;;;;;10.94;79.22;100176.59;5478253;25;96028;-80
2024/04/20 02:16:45;;;;;;;5.03;1.85;;;;;;;10.88;78.78;100192.72;5488099;25;96844;-79
2024/04/20 02:19:16;;;;;;;1.50;1.40;;;;;;;10.90;79.22;100197.00;5475986;25;94707;-79
2024/04/20 02:21:44;;;;;;;3.90;1.77;;;;;;;10.78;79.53;100208.13;5492112;25;95267;-78
2024/04/20 02:24:12;;;;;;;3.88;1.83;;;;;;;10.79;79.72;100205.41;5470585;25;95977;-80
2024/04/20 02:26:40;;;;;;;3.40;1.50;;;;;;;10.64;80.81;100208.72;5476088;25;98847;-80
2024/04/20 02:29:08;;;;;;;1.27;1.10;;;;;;;10.76;79.48;100218.75;5479195;25;95425;-81
2024/04/20 02:31:37;;;;;;;2.10;1.10;;;;;;;10.64;80.08;100224.59;5486608;25;94963;-80
2024/04/20 02:34:05;;;;;;;0.85;0.73;;;;;;;10.73;79.27;100229.47;5479403;25;99919;-80
2024/04/20 02:36:36;;;;;;;2.40;1.02;;;;;;;10.68;78.86;100238.53;5502018;25;95229;-79
2024/04/20 02:39:02;;;;;;;4.60;0.65;;;;;;;10.25;79.36;100247.44;5477949;25;94726;-78
2024/04/20 02:41:30;;;;;;;;;;;;;;;10.13;81.27;100255.84;5481066;25;94812;-78
2024/04/20 02:43:58;;;;;;;0.90;0.60;;;;;;;10.47;80.48;100245.59;5479043;25;95937;-79
2024/04/20 02:46:27;;;;;;;0.95;0.65;;;;;;;10.52;78.94;100258.59;5478273;25;96960;-79
2024/04/20 02:48:55;;;;;;;0.82;0.60;;;;;;;10.69;77.97;100277.25;5480907;25;94746;-79
2024/04/20 02:51:23;;;;;;;2.45;0.70;;;;;;;10.58;77.77;100279.47;5472667;25;94757;-79
2024/04/20 02:53:54;;;;;;;1.88;0.70;;;;;;;10.29;78.30;100281.59;5487028;25;96851;-79
2024/04/20 02:56:22;;;;;;;1.05;0.57;;;;;;;10.32;78.14;100293.78;5473505;25;97425;-79
2024/04/20 02:58:50;;;;;;;2.55;0.47;;;;;;;10.42;78.09;100304.84;5494274;25;94684;-79
2024/04/20 03:01:18;;;;;;;1.83;0.40;;;;;;;10.09;77.98;100305.28;5503633;25;95016;-79
2024/04/20 03:03:46;;;;;;;0.93;0.40;;;;;;;10.23;78.46;100310.88;5500362;25;96173;-80
2024/04/20 03:06:15;;;;;;;3.10;0.52;;;;;;;9.92;78.84;100320.91;5487328;25;94701;-80
2024/04/20 03:08:43;;;;;;;0.90;0.38;;;;;;;10.04;78.61;100328.38;5488371;25;95146;-81
2024/04/20 03:11:13;;;;;;;1.30;0.40;;;;;;;10.04;79.33;100331.00;5478801;25;94876;-81
2024/04/20 03:13:42;;;;;;;0.40;0.40;;;;;;;10.03;79.05;100328.41;5481414;25;95917;-79
2024/04/20 03:16:10;;;;;;;3.58;0.57;;;;;;;10.11;78.87;100336.91;5484075;25;97985;-78
2024/04/20 03:18:38;;;;;;;1.75;0.60;;;;;;;9.89;79.24;100343.00;5473408;25;94983;-79
2024/04/20 03:21:06;;;;;;;0.90;0.30;;;;;;;9.93;79.03;100349.03;5482826;25;95063;-79
2024/04/20 03:23:35;;;;;;;2.17;0.57;;;;;;;9.63;79.06;100352.84;5480445;25;99433;-79
2024/04/20 03:26:03;;;;;;;2.25;0.60;;;;;;;9.91;79.00;100362.28;5479625;25;99372;-77
2024/04/20 03:28:34;;;;;;;0.95;0.55;;;;;;;9.86;78.36;100364.22;5477382;25;94850;-77
2024/04/20 03:31:02;;;;;;;1.30;0.40;;;;;;;9.91;78.62;100372.81;5475452;25;94792;-76
2024/04/20 03:33:34;;;;;;;1.70;0.50;;;;;;;10.03;78.51;100376.78;5469516;25;96847;-79
2024/04/20 03:36:04;;;;;;;1.15;0.70;;;;;;;9.77;78.89;100380.44;5472533;25;97246;-78
2024/04/20 03:38:32;;;;;;;0.35;0.25;;;;;;;9.88;79.03;100385.28;5466091;25;95215;-78
2024/04/20 03:41:00;;;;;;;2.03;0.30;;;;;;;9.86;78.21;100389.75;5478676;25;95361;-78
2024/04/20 03:43:28;;;;;;;0.77;0.45;;;;;;;10.16;76.73;100395.66;5489229;25;97771;-77
2024/04/20 03:45:59;;;;;;;0.88;0.40;;;;;;;10.11;76.57;100405.53;5467533;25;98546;-77
2024/04/20 03:48:29;;;;;;;1.58;0.40;;;;;;;10.25;75.20;100408.50;5467015;25;94778;-77
2024/04/20 03:50:58;;;;;;;1.02;0.40;;;;;;;9.68;75.90;100414.22;5471478;25;95838;-78
2024/04/20 03:53:26;;;;;;;0.70;0.40;;;;;;;9.98;76.03;100424.47;5477258;25;97285;-77
2024/04/20 03:55:55;;;;;;;0.47;0.45;;;;;;;9.78;76.58;100421.72;5471103;25;98601;-77
2024/04/20 03:58:24;;;;;;;0.68;0.40;;;;;;;9.56;76.58;100434.00;5475542;25;96078;-77
2024/04/20 04:00:52;;;;;;;1.08;0.60;;;;;;;9.81;75.59;100445.34;5480043;25;97858;-77
2024/04/20 04:03:26;;;;;;;0.93;0.60;;;;;;;9.98;75.82;100447.34;5478575;25;95965;-77
2024/04/20 04:05:55;;;;;;;1.15;0.68;;;;;;;10.01;74.82;100455.16;5457843;25;96812;-76
2024/04/20 04:08:23;;;;;;;0.90;0.40;;;;;;;9.90;74.16;100460.00;5470696;25;94808;-77
2024/04/20 04:10:51;;;;;;;3.17;0.43;;;;;;;9.67;75.30;100463.47;5482632;25;95148;-81
2024/04/20 04:13:19;;;;;;;2.08;1.25;;;;;;;9.73;75.30;100473.78;5475703;25;97270;-82
2024/04/20 04:15:48;;;;;;;0.75;0.40;;;;;;;9.69;75.99;100479.25;5477097;25;100017;-82
2024/04/20 04:18:16;;;;;;;2.40;0.60;;;;;;;9.69;74.46;100488.03;5472690;25;95281;-80
2024/04/20 04:20:47;;;;;;;1.10;0.60;;;;;;;9.63;75.03;100493.53;5469396;25;94911;-81
2024/04/20 04:23:15;;;;;;;5.32;0.50;;;;;;;9.81;74.40;100487.59;5479571;25;97231;-80
2024/04/20 04:25:44;;;;;;;0.60;0.60;;;;;;;9.66;73.97;100500.44;5480659;25;99716;-81
2024/04/20 04:28:12;;;;;;;1.70;0.50;;;;;;;9.81;73.96;100508.69;5483886;25;95195;-78
2024/04/20 04:30:40;;;;;;;1.25;0.50;;;;;;;9.65;73.65;100518.06;5492260;25;95487;-78
2024/04/20 04:33:09;;;;;;;1.83;0.50;;;;;;;9.82;73.17;100520.13;5481216;25;95874;-79
2024/04/20 04:35:36;;;;;;;1.52;1.00;;;;;;;9.44;73.16;100535.50;5489437;25;95757;-79
2024/04/20 04:38:07;;;;;;;2.45;0.70;;;;;;;9.39;72.82;100547.97;5480557;25;96447;-79
2024/04/20 04:40:35;;;;;;;0.57;0.57;;;;;;;9.62;73.72;100544.56;5489376;25;94913;-78
2024/04/20 04:43:03;;;;;;;2.20;0.80;;;;;;;9.51;72.73;100552.00;5459005;25;95556;-78
2024/04/20 04:45:32;;;;;;;1.63;0.82;;;;;;;9.57;72.42;100557.06;5487387;25;99497;-78
2024/04/20 04:48:03;;;;;;;1.55;1.00;;;;;;;9.56;71.88;100566.75;5459226;25;94749;-77
2024/04/20 04:50:31;;;;;;;2.13;0.70;;;;;;;9.41;72.96;100572.53;5483415;25;94815;-78
2024/04/20 04:52:59;;;;;;;1.52;0.80;;;;;;;9.72;71.98;100582.03;5478512;25;95499;-79
2024/04/20 04:55:31;;;;;;;0.85;0.73;;;;;;;9.71;70.58;100591.75;5472681;25;95804;-79
2024/04/20 04:57:59;;;;;;;1.75;0.60;;;;;;;9.67;70.57;100595.38;5465650;25;94889;-78
2024/04/20 05:00:28;;;;;;;1.00;0.80;;;;;;;9.63;69.93;100601.69;5477853;25;95069;-78
2024/04/20 05:02:56;;;;;;;1.27;0.93;;;;;;;9.72;70.43;100598.72;5472663;25;97128;-79
2024/04/20 05:05:24;;;;;;;3.67;1.80;;;;;;;9.94;69.08;100609.41;5475545;25;98222;-77
2024/04/20 05:07:52;;;;;;;4.00;1.10;;;;;;;10.07;69.29;100615.13;5472196;25;95042;-78
2024/04/20 05:10:21;;;;;;;1.30;0.90;;;;;;;10.28;69.49;100624.94;5478008;25;94904;-77
2024/04/20 05:12:52;;;;;;;4.03;0.70;;;;;;;10.13;68.94;100636.00;5459619;25;97252;-78
2024/04/20 05:15:20;;;;;;;1.38;0.90;;;;;;;10.03;68.57;100632.84;5464710;25;96186;-77
2024/04/20 05:17:48;;;;;;;4.88;0.95;;;;;;;10.15;68.58;100645.63;5462840;25;96730;-79
2024/04/20 05:20:16;;;;;;;2.53;1.10;;;;;;;10.17;68.95;100650.88;5478964;25;94941;-77
2024/04/20 05:22:44;;;;;;;6.55;1.45;;;;;;;9.81;68.52;100653.84;5474889;25;95408;-77
2024/04/20 05:25:12;;;;;;;1.80;0.70;;;;;;;9.87;69.43;100665.97;5478530;25;96809;-77
2024/04/20 05:27:40;;;;;;;1.80;0.95;;;;;;;10.19;68.57;100670.16;5471004;25;94794;-78
2024/04/20 05:30:11;;;;;;;2.33;1.25;;;;;;;9.99;68.66;100676.97;5466887;25;94883;-78
2024/04/20 05:32:39;;;;;;;1.98;0.80;;;;;;;9.94;68.65;100689.47;5477011;25;95640;-79
2024/04/20 05:35:08;;;;;;;2.47;1.20;;;;;;;10.03;68.30;100687.44;5476939;25;99255;-78
2024/04/20 05:37:36;;;;;;;3.10;1.02;;;;;;;10.08;68.13;100693.41;5472699;25;94794;-78
2024/04/20 05:40:05;;;;;;;2.05;1.00;;;;;;;9.97;67.98;100704.34;5469700;25;94978;-79
2024/04/20 05:42:34;;;;;;;3.42;0.88;;;;;;;10.00;68.24;100699.81;5476758;25;100649;-79
2024/04/20 05:45:02;;;;;;;1.27;1.13;;;;;;;10.08;66.72;100715.38;5473613;25;97745;-79
2024/04/20 05:47:33;;;;;;;2.90;1.13;;;;;;;10.11;66.71;100722.34;5465905;25;94630;-79
2024/04/20 05:50:01;;;;;;;2.95;1.40;;;;;;;10.00;67.14;100715.66;5474764;25;95010;-79
2024/04/20 05:52:29;;;;;;;2.17;1.38;;;;;;;9.88;68.38;100726.63;5466020;25;96466;-79
2024/04/20 05:54:57;;;;;;;5.22;1.30;;;;;;;9.72;69.16;100730.66;5477234;25;97844;-80
2024/04/20 05:57:25;;;;;;;2.95;1.67;;;;;;;9.88;69.26;100736.31;5478472;25;95147;-79
2024/04/20 05:59:53;;;;;;;4.00;2.25;;;;;;;9.86;68.47;100744.28;5477244;25;95034;-78
2024/04/20 06:02:21;;;;;;;4.78;2.03;;;;;;;10.03;68.33;100753.44;5463194;25;98344;-77
2024/04/20 06:04:52;;;;;;;2.47;1.67;;;;;;;10.31;65.88;100757.75;5470902;25;95662;-78
2024/04/20 06:07:20;;;;;;;6.07;1.70;;;;;;;10.42;64.99;100762.69;5466343;25;96517;-78
2024/04/20 06:09:49;;;;;;;5.25;2.60;;;;;;;10.10;64.61;100762.88;5458123;25;97346;-74
2024/04/20 06:12:17;;;;;;;5.22;2.90;;;;;;;9.96;65.39;100779.16;5470605;25;96960;-73
2024/04/20 06:14:46;;;;;;;2.30;1.73;;;;;;;9.90;65.44;100777.59;5472231;25;99885;-74
2024/04/20 06:17:14;;;;;;;4.45;1.40;;;;;;;9.96;64.24;100787.09;5474708;25;95297;-73
2024/04/20 06:19:42;;;;;;;6.03;1.30;;;;;;;10.08;63.99;100785.81;5481794;25;94894;-73
2024/04/20 06:22:13;;;;;;;3.33;1.40;;;;;;;9.93;63.41;100793.31;5468818;25;96122;-74
2024/04/20 06:24:41;;;;;;;4.78;1.45;;;;;;;10.23;62.87;100798.56;5469772;25;96577;-74
2024/04/20 06:27:10;;;;;;;2.50;1.40;;;;;;;10.08;62.38;100804.28;5480656;25;94721;-73
2024/04/20 06:29:38;;;;;;;1.98;1.33;;;;;;;10.13;62.24;100815.56;5474048;25;95001;-74
2024/04/20 06:32:06;;;;;;;3.85;1.17;;;;;;;10.20;61.44;100810.06;5472062;25;99130;-73
2024/04/20 06:34:34;;;;;;;1.83;1.20;;;;;;;10.47;60.80;100821.50;5475136;25;97287;-73
2024/04/20 06:37:02;;;;;;;3.80;1.20;;;;;;;10.47;60.32;100826.78;5480644;25;94762;-72
2024/04/20 06:39:33;;;;;;;2.67;1.20;;;;;;;10.54;58.90;100825.66;5478580;25;94762;-73
2024/04/20 06:42:01;;;;;;;3.33;1.35;;;;;;;10.87;59.01;100841.25;5474816;25;95718;-74
2024/04/20 06:44:29;;;;;;;1.98;1.15;;;;;;;10.65;58.31;100843.78;5479874;25;97300;-73
2024/04/20 06:46:58;;;;;;;4.13;1.20;;;;;;;10.48;57.47;100844.34;5463118;25;94746;-73
2024/04/20 06:49:26;;;;;;;2.33;1.00;;;;;;;10.06;58.01;100843.06;5462389;25;95103;-73
2024/04/20 06:51:54;;;;;;;4.30;1.30;;;;;;;9.74;58.85;100855.50;5474372;25;97668;-77
2024/04/20 06:54:22;;;;;;;4.30;1.27;;;;;;;9.97;58.81;100858.31;5472671;25;97419;-78
2024/04/20 06:56:53;;;;;;;4.60;1.60;;;;;;;10.07;58.66;100860.66;5479220;25;95236;-78
2024/04/20 06:59:22;;;;;;;2.83;1.40;;;;;;;10.17;57.68;100856.84;5479927;25;94835;-78
2024/04/20 07:01:50;;;;;;;2.58;1.17;;;;;;;10.41;57.80;100860.47;5474821;25;99888;-79
2024/04/20 07:04:18;;;;;;;3.17;1.30;;;;;;;10.47;56.68;100879.63;5479557;25;96413;-78
2024/04/20 07:06:46;;;;;;;2.97;1.35;;;;;;;10.44;57.04;100885.00;5478890;25;94780;-80
2024/04/20 07:09:14;;;;;;;3.63;1.42;;;;;;;10.82;55.71;100882.88;5473399;25;95212;-78
2024/04/20 07:11:42;;;;;;;4.80;1.52;;;;;;;11.66;53.62;100880.69;5474358;25;94966;-79
2024/04/20 07:14:13;;;;;;;3.75;2.03;;;;;;;12.11;50.75;100883.38;5482842;25;96151;-79
2024/04/20 07:16:41;;;;;;;4.35;1.73;;;;;;;12.51;49.66;100890.59;5474711;25;95232;-80
2024/04/20 07:19:09;;;;;;;3.78;1.55;;;;;;;12.58;48.58;100897.34;5489530;25;95105;-74
2024/04/20 07:21:38;;;;;;;4.88;2.28;;;;;;;12.80;47.93;100900.00;5465341;25;96909;-73
2024/04/20 07:24:07;;;;;;;2.92;1.60;;;;;;;12.74;48.93;100903.72;5481293;25;97188;-72
2024/04/20 07:26:35;;;;;;;1.33;1.23;;;;;;;12.46;49.20;100903.16;5477605;25;94848;-72
2024/04/20 07:29:04;;;;;;;1.70;0.95;;;;;;;12.60;48.99;100917.56;5480315;25;95025;-72
2024/04/20 07:31:34;;;;;;;1.35;1.00;;;;;;;12.83;49.10;100919.25;5480662;25;99570;-72
2024/04/20 07:34:02;;;;;;;6.55;1.40;;;;;;;13.40;48.51;100931.84;5480180;25;98945;-72
2024/04/20 07:36:31;;;;;;;4.15;1.13;;;;;;;13.43;47.08;100929.06;5464592;25;94866;-72
2024/04/20 07:38:59;;;;;;;1.88;1.23;;;;;;;13.60;46.92;100951.31;5480502;25;94990;-72
2024/04/20 07:41:27;;;;;;;2.38;1.20;;;;;;;13.44;45.78;100940.56;5472178;25;96827;-72
2024/04/20 07:43:58;;;;;;;9.75;1.77;;;;;;;13.48;46.86;100950.94;5464860;25;95591;-72
2024/04/20 07:46:26;;;;;;;4.15;1.83;;;;;;;13.50;46.21;100956.19;5469355;25;94766;-72
2024/04/20 07:48:57;;;;;;;1.98;1.00;;;;;;;13.29;46.55;100958.00;5467205;25;97123;-73
2024/04/20 07:51:22;;;;;;;3.15;1.02;;;;;;;13.19;47.14;100962.00;5476516;25;97475;-73
2024/04/20 07:53:50;;;;;;;;;;;;;;;12.86;47.11;100969.53;5473668;25;100163;-74
2024/04/20 07:56:18;;;;;;;1.90;1.15;;;;;;;12.54;47.83;100977.91;5478454;25;95238;-72
2024/04/20 07:58:46;;;;;;;3.03;1.50;;;;;;;11.91;49.11;100988.28;5472895;25;95757;-73
2024/04/20 08:01:14;;;;;;;1.92;1.38;;;;;;;12.20;49.73;100987.22;5474612;25;96842;-71
2024/04/20 08:03:42;;;;;;;2.88;1.40;;;;;;;12.18;49.00;100990.81;5466204;25;96905;-71
2024/04/20 08:06:13;;;;;;;2.20;1.15;;;;;;;12.05;48.31;101003.66;5479181;25;96866;-70
2024/04/20 08:08:41;;;;;;;4.88;1.38;;;;;;;11.94;49.38;101000.56;5463480;25;95758;-72
2024/04/20 08:11:09;;;;;;;7.22;1.27;;;;;;;12.04;49.45;101004.59;5457241;25;95425;-71
2024/04/20 08:13:37;;;;;;;3.35;1.38;;;;;;;12.20;49.00;101004.88;5463665;25;96867;-73
2024/04/20 08:16:06;;;;;;;2.38;1.35;;;;;;;11.85;48.78;101022.94;5471954;25;95408;-73
2024/04/20 08:18:34;;;;;;;2.03;1.17;;;;;;;12.11;48.86;101032.56;5475870;25;95025;-74
2024/04/20 08:21:02;;;;;;;2.03;1.00;;;;;;;12.11;48.48;101037.88;5480290;25;96463;-73
2024/04/20 08:23:33;;;;;;;2.42;1.15;;;;;;;12.34;48.00;101031.69;5471550;25;98475;-73
2024/04/20 08:26:01;;;;;;;3.08;1.38;;;;;;;12.45;47.33;101040.13;5470489;25;97070;-73
2024/04/20 08:28:29;;;;;;;2.42;1.25;;;;;;;12.89;47.43;101048.09;5474752;25;94921;-74
2024/04/20 08:31:00;;;;;;;3.58;2.10;;;;;;;13.71;46.52;101042.88;5470857;25;95710;-73
2024/04/20 08:33:28;;;;;;;1.50;0.93;;;;;;;14.40;43.60;101037.13;5480141;25;97700;-74
2024/04/20 08:35:56;;;;;;;2.03;1.15;;;;;;;14.81;43.81;101046.69;5482474;25;96793;-74
2024/04/20 08:38:24;;;;;;;2.42;1.02;;;;;;;14.56;41.65;101048.78;5491869;25;95320;-73
2024/04/20 08:41:01;;;;;;;4.93;1.05;;;;;;;13.87;43.78;101062.53;5466311;25;95793;-72
2024/04/20 08:43:31;;;;;;;5.88;1.30;;;;;;;12.92;46.47;101086.00;5474340;25;97813;-72
2024/04/20 08:45:59;;;;;;;4.65;1.15;;;;;;;12.68;48.66;101086.94;5482045;25;94786;-73
2024/04/20 08:48:29;;;;;;;4.45;1.23;;;;;;;12.34;49.48;101085.56;5476818;25;95573;-73
2024/04/20 08:51:01;;;;;;;5.10;2.20;;;;;;;12.33;48.64;101091.81;5476924;25;97642;-73
2024/04/20 08:53:30;;;;;;;7.50;3.75;;;;;;;12.26;49.13;101094.72;5477769;25;97491;-75
2024/04/20 08:56:03;;;;;;;5.00;1.20;;;;;;;12.46;49.62;101100.16;5478830;25;95448;-73
2024/04/20 08:58:32;;;;;;;3.72;1.10;;;;;;;12.61;48.75;101106.63;5466637;25;94779;-75
2024/04/20 09:01:03;;;;;;;3.85;1.10;;;;;;;12.88;48.89;101110.03;5466691;25;96916;-77
2024/04/20 09:03:31;;;;;;;2.75;1.20;;;;;;;12.94;47.27;101121.25;5470060;25;96753;-76
2024/04/20 09:06:00;;;;;;;2.40;1.30;;;;;;;13.46;46.69;101119.19;5469744;25;95366;-76
2024/04/20 09:08:28;;;;;;;3.35;1.20;;;;;;;13.83;45.16;101124.69;5464982;25;95132;-76
2024/04/20 09:10:56;;;;;;;7.13;1.70;;;;;;;14.26;44.78;101123.66;5477781;25;97494;-78
2024/04/20 09:13:27;;;;;;;5.93;1.27;;;;;;;14.69;43.91;101133.25;5480060;25;96034;-77
2024/04/20 09:15:57;;;;;;;2.95;1.55;;;;;;;14.20;43.96;101117.75;5466655;25;94721;-76
2024/04/20 09:18:25;;;;;;;5.68;2.83;;;;;;;14.20;43.54;101123.06;5473845;25;95147;-77
2024/04/20 09:20:53;;;;;;;3.92;1.30;;;;;;;14.10;44.27;101135.06;5471030;25;99921;-77
2024/04/20 09:23:24;;;;;;;3.67;1.58;;;;;;;13.94;44.08;101127.75;5472920;25;97332;-76
2024/04/20 09:25:53;;;;;;;3.58;1.38;;;;;;;13.87;44.19;101133.38;5476231;25;94747;-76
2024/04/20 09:28:21;;;;;;;4.47;1.50;;;;;;;13.88;43.91;101141.28;5470976;25;94974;-77
2024/04/20 09:30:54;;;;;;;5.13;1.42;;;;;;;13.83;43.24;101139.75;5473707;25;95589;-77
2024/04/20 09:33:23;;;;;;;3.10;1.35;;;;;;;13.63;43.67;101143.25;5465272;25;99699;-76
2024/04/20 09:35:51;;;;;;;1.48;1.13;;;;;;;13.86;43.83;101139.63;5472101;25;94888;-76
2024/04/20 09:38:20;;;;;;;5.10;1.63;;;;;;;13.90;43.23;101154.50;5474453;25;95072;-75
2024/04/20 09:40:49;;;;;;;4.90;1.40;;;;;;;13.24;43.84;101156.38;5477752;25;95664;-76
2024/04/20 09:43:23;;;;;;;6.38;1.30;;;;;;;12.92;44.52;101162.03;5472584;25;97117;-76
2024/04/20 09:45:54;;;;;;;4.40;1.38;;;;;;;12.83;45.42;101173.84;5471638;25;95712;-75
2024/04/20 09:48:26;;;;;;;6.03;1.55;;;;;;;12.51;46.72;101164.47;5472970;25;97467;-76
2024/04/20 09:51:05;;;;;;;3.38;1.58;;;;;;;12.82;47.03;101169.47;5460488;25;97537;-79
2024/04/20 09:53:36;;;;;;;6.57;1.73;;;;;;;13.14;45.86;101169.13;5467150;25;97033;-75
2024/04/20 09:56:05;;;;;;;1.58;1.13;;;;;;;13.60;44.97;101177.03;5480425;25;94865;-75
2024/04/20 09:58:35;;;;;;;2.45;1.27;;;;;;;13.75;44.97;101179.06;5478190;25;94868;-75
2024/04/20 10:01:08;;;;;;;2.97;1.42;;;;;;;14.03;43.70;101178.75;5475602;25;96936;-76
2024/04/20 10:03:38;;;;;;;4.85;1.25;;;;;;;13.88;43.37;101167.84;5471387;25;99633;-75
2024/04/20 10:06:07;;;;;;;4.72;1.20;;;;;;;14.07;42.68;101175.03;5469580;25;95001;-76
2024/04/20 10:08:37;;;;;;;2.28;1.20;;;;;;;13.59;43.45;101177.97;5481717;25;94932;-75
2024/04/20 10:11:06;;;;;;;3.58;1.65;;;;;;;13.61;42.49;101184.06;5478210;25;98224;-75
2024/04/20 10:13:36;;;;;;;3.90;1.23;;;;;;;13.58;43.01;101179.75;5479752;25;97341;-76
2024/04/20 10:16:08;;;;;;;3.55;1.38;;;;;;;13.60;43.31;101185.84;5461744;25;94856;-77
2024/04/20 10:18:37;;;;;;;4.07;1.30;;;;;;;13.26;43.95;101196.97;5476730;25;94806;-74
2024/04/20 10:21:05;;;;;;;7.30;1.35;;;;;;;13.07;45.28;101195.91;5481271;25;98022;-75
2024/04/20 10:23:33;;;;;;;2.00;1.35;;;;;;;12.98;44.28;101204.25;5477335;25;97056;-75
2024/04/20 10:26:01;;;;;;;5.22;1.40;;;;;;;12.76;43.78;101206.81;5492551;25;95379;-76
2024/04/20 10:28:31;;;;;;;1.30;1.20;;;;;;;13.12;43.28;101200.19;5471640;25;94933;-76
2024/04/20 10:31:00;;;;;;;2.78;1.00;;;;;;;13.20;42.83;101207.81;5476020;25;100340;-75
2024/04/20 10:33:32;;;;;;;1.77;1.23;;;;;;;13.51;41.31;101204.84;5479920;25;96356;-75
2024/04/20 10:36:02;;;;;;;1.55;1.10;;;;;;;13.69;40.11;101206.72;5477491;25;95142;-76
2024/04/20 10:38:32;;;;;;;1.23;1.02;;;;;;;14.03;39.62;101206.19;5476023;25;94807;-75
2024/04/20 10:41:14;;;;;;;1.80;1.17;;;;;;;14.31;38.22;101205.84;5478816;25;96955;-76
2024/04/20 10:43:42;;;;;;;1.27;1.10;;;;;;;14.70;37.73;101208.59;5474628;25;95555;-76
2024/04/20 10:46:11;;;;;;;2.90;1.08;;;;;;;14.54;39.52;101223.50;5478883;25;94852;-76
2024/04/20 10:48:42;;;;;;;3.72;0.93;;;;;;;14.19;42.43;101238.28;5475799;25;94953;-76
2024/04/20 10:51:12;;;;;;;2.65;1.10;;;;;;;14.19;44.17;101238.28;5461193;25;96327;-78
2024/04/20 10:53:39;;;;;;;2.67;0.93;;;;;;;13.82;45.40;101238.97;5472350;25;98222;-78
2024/04/20 10:56:09;;;;;;;3.72;1.20;;;;;;;13.79;45.83;101244.38;5481694;25;94881;-75
2024/04/20 10:58:42;;;;;;;3.40;1.58;;;;;;;13.89;45.74;101251.06;5478451;25;94955;-76
2024/04/20 11:01:10;;;;;;;2.92;1.17;;;;;;;13.53;47.20;101254.28;5456231;25;96849;-76
2024/04/20 11:03:43;;;;;;;2.20;1.20;;;;;;;13.83;47.24;101246.00;5480436;25;97003;-75
2024/04/20 11:06:11;;;;;;;2.67;1.48;;;;;;;13.78;46.52;101248.00;5480567;25;94767;-75
2024/04/20 11:08:43;;;;;;;1.25;1.10;;;;;;;13.84;47.93;101253.91;5478209;25;94939;-77
2024/04/20 11:11:11;;;;;;;3.00;1.73;;;;;;;13.88;45.96;101255.50;5461431;25;96926;-76
2024/04/20 11:13:41;;;;;;;4.00;1.35;;;;;;;14.13;46.18;101251.84;5472356;25;97376;-75
2024/04/20 11:16:10;;;;;;;7.05;1.90;;;;;;;14.44;46.24;101254.09;5467058;25;94993;-76
2024/04/20 11:18:38;;;;;;;1.75;1.45;;;;;;;14.29;46.01;101263.56;5479952;25;95033;-76
2024/04/20 11:21:09;;;;;;;2.85;1.70;;;;;;;14.72;44.99;101260.78;5468902;25;96118;-75
2024/04/20 11:23:37;;;;;;;2.20;1.50;;;;;;;14.79;44.56;101260.50;5463545;25;97311;-77
2024/04/20 11:26:05;;;;;;;12.98;6.38;;;;;;;14.65;44.94;101256.66;5478843;25;94848;-75
2024/04/20 11:28:33;;;;;;;5.10;1.55;;;;;;;14.90;44.27;101258.25;5480387;25;95002;-76
2024/04/20 11:31:02;;;;;;;2.83;1.45;;;;;;;14.70;44.36;101264.47;5466982;25;99730;-75
2024/04/20 11:33:32;;;;;;;4.43;1.40;;;;;;;14.58;43.90;101257.84;5481887;25;96911;-77